Search for airport 
image banner adimage banner adimage banner ad
image banner ad

2PN2 - Fortman

Located in Shrewsbury, United States

ICAO - 2PN2, IATA -

Data provided by Airmate  

General information

Coordinates: N39°47'15" W76°38'50"
Elevation is 990 feet MSL.
Magnetic variation is -11° East
View others Airports in Pennsylvania

Operational data

Special qualification required
Current time UTC:
Current local time:
Weather at : KTHV - York ( 24 km )
METAR: KTHV 091453Z AUTO 19005KT 10SM OVC060 10/03 A3010 RMK AO2 SLP196 T01000033 55006
View NOTAMs / SUP AIP / TFR affecting this airport [VIEW]
Communications frequencies: [VIEW]

Runways:

Airport contact information

Address: Shrewsbury United States

Satellite view of 2PN2